sensor_id;sensor_type;location;lat;lon;timestamp;pressure;altitude;pressure_sealevel;temperature
29701;BMP280;57917;51.380;-0.176;2022-09-09T00:13:24;99944.72;;;17.22
29701;BMP280;57917;51.380;-0.176;2022-09-09T00:19:57;99941.19;;;17.18
29701;BMP280;57917;51.380;-0.176;2022-09-09T00:26:22;99951.75;;;17.26
29701;BMP280;57917;51.380;-0.176;2022-09-09T00:32:24;99948.06;;;17.31
29701;BMP280;57917;51.380;-0.176;2022-09-09T01:06:37;99927.63;;;17.11
29701;BMP280;57917;51.380;-0.176;2022-09-09T01:13:00;99923.38;;;17.10
29701;BMP280;57917;51.380;-0.176;2022-09-09T01:19:10;99917.50;;;17.04
29701;BMP280;57917;51.380;-0.176;2022-09-09T01:31:58;99923.81;;;17.12
29701;BMP280;57917;51.380;-0.176;2022-09-09T01:37:49;99926.47;;;17.12
29701;BMP280;57917;51.380;-0.176;2022-09-09T01:43:41;99926.41;;;17.08
29701;BMP280;57917;51.380;-0.176;2022-09-09T01:49:28;99923.63;;;17.05
29701;BMP280;57917;51.380;-0.176;2022-09-09T01:55:40;99925.59;;;17.08
29701;BMP280;57917;51.380;-0.176;2022-09-09T02:09:19;99918.75;;;16.83
29701;BMP280;57917;51.380;-0.176;2022-09-09T02:16:50;99928.44;;;16.87
29701;BMP280;57917;51.380;-0.176;2022-09-09T02:22:57;99931.56;;;16.77
29701;BMP280;57917;51.380;-0.176;2022-09-09T02:28:50;99932.09;;;16.83
29701;BMP280;57917;51.380;-0.176;2022-09-09T02:34:47;99929.91;;;16.73
29701;BMP280;57917;51.380;-0.176;2022-09-09T02:40:46;99937.56;;;16.74
29701;BMP280;57917;51.380;-0.176;2022-09-09T02:59:04;99944.16;;;17.01
29701;BMP280;57917;51.380;-0.176;2022-09-09T03:04:54;99943.91;;;16.94
29701;BMP280;57917;51.380;-0.176;2022-09-09T03:10:44;99946.47;;;17.02
29701;BMP280;57917;51.380;-0.176;2022-09-09T03:16:34;99965.44;;;16.85
29701;BMP280;57917;51.380;-0.176;2022-09-09T03:22:27;99959.50;;;16.92
29701;BMP280;57917;51.380;-0.176;2022-09-09T03:28:18;99946.81;;;16.77
29701;BMP280;57917;51.380;-0.176;2022-09-09T03:34:05;99965.88;;;16.75
29701;BMP280;57917;51.380;-0.176;2022-09-09T03:39:54;99961.09;;;16.81
29701;BMP280;57917;51.380;-0.176;2022-09-09T03:46:32;99968.44;;;16.72
29701;BMP280;57917;51.380;-0.176;2022-09-09T03:52:44;99966.63;;;16.88
29701;BMP280;57917;51.380;-0.176;2022-09-09T03:58:52;99973.53;;;16.89
29701;BMP280;57917;51.380;-0.176;2022-09-09T04:04:54;99967.88;;;16.90
29701;BMP280;57917;51.380;-0.176;2022-09-09T04:10:56;99974.00;;;16.91
29701;BMP280;57917;51.380;-0.176;2022-09-09T04:16:55;99995.38;;;16.91
29701;BMP280;57917;51.380;-0.176;2022-09-09T04:22:48;99998.94;;;16.83
29701;BMP280;57917;51.380;-0.176;2022-09-09T04:28:55;100008.53;;;16.84
29701;BMP280;57917;51.380;-0.176;2022-09-09T04:34:45;100011.94;;;16.72
29701;BMP280;57917;51.380;-0.176;2022-09-09T04:40:37;100015.19;;;16.66
29701;BMP280;57917;51.380;-0.176;2022-09-09T04:46:27;100011.19;;;16.72
29701;BMP280;57917;51.380;-0.176;2022-09-09T04:52:16;100017.53;;;16.79
29701;BMP280;57917;51.380;-0.176;2022-09-09T04:58:10;100017.88;;;17.02
29701;BMP280;57917;51.380;-0.176;2022-09-09T05:04:32;100015.44;;;17.09
29701;BMP280;57917;51.380;-0.176;2022-09-09T05:10:24;100028.25;;;16.79
29701;BMP280;57917;51.380;-0.176;2022-09-09T05:17:19;100046.63;;;16.81
29701;BMP280;57917;51.380;-0.176;2022-09-09T05:24:06;100051.06;;;16.65
29701;BMP280;57917;51.380;-0.176;2022-09-09T05:30:00;100052.97;;;16.88
29701;BMP280;57917;51.380;-0.176;2022-09-09T05:36:28;100058.19;;;16.85
29701;BMP280;57917;51.380;-0.176;2022-09-09T05:42:45;100067.09;;;16.77
29701;BMP280;57917;51.380;-0.176;2022-09-09T05:48:39;100077.34;;;16.87
29701;BMP280;57917;51.380;-0.176;2022-09-09T05:54:29;100080.47;;;16.89
29701;BMP280;57917;51.380;-0.176;2022-09-09T06:00:19;100092.66;;;16.86
29701;BMP280;57917;51.380;-0.176;2022-09-09T06:06:11;100090.94;;;16.82
29701;BMP280;57917;51.380;-0.176;2022-09-09T06:12:45;100090.25;;;16.97
29701;BMP280;57917;51.380;-0.176;2022-09-09T06:18:45;100094.19;;;16.99
29701;BMP280;57917;51.380;-0.176;2022-09-09T06:24:47;100105.31;;;17.01
29701;BMP280;57917;51.380;-0.176;2022-09-09T06:37:08;100117.47;;;16.99
29701;BMP280;57917;51.380;-0.176;2022-09-09T06:43:07;100121.63;;;16.96
29701;BMP280;57917;51.380;-0.176;2022-09-09T06:48:59;100128.41;;;17.06
29701;BMP280;57917;51.380;-0.176;2022-09-09T06:54:56;100129.06;;;17.03
29701;BMP280;57917;51.380;-0.176;2022-09-09T07:01:06;100132.50;;;17.03
29701;BMP280;57917;51.380;-0.176;2022-09-09T07:14:50;100144.13;;;17.19
29701;BMP280;57917;51.380;-0.176;2022-09-09T08:50:55;100252.53;;;17.97
29701;BMP280;57917;51.380;-0.176;2022-09-09T08:56:56;100253.03;;;18.03
29701;BMP280;57917;51.380;-0.176;2022-09-09T10:05:08;100331.91;;;18.53
29701;BMP280;57917;51.380;-0.176;2022-09-09T10:58:54;100342.38;;;19.57
29701;BMP280;57917;51.380;-0.176;2022-09-09T11:28:37;100373.59;;;19.46
29701;BMP280;57917;51.380;-0.176;2022-09-09T11:41:23;100366.00;;;20.29
29701;BMP280;57917;51.380;-0.176;2022-09-09T11:47:53;100366.81;;;20.14
29701;BMP280;57917;51.380;-0.176;2022-09-09T11:54:44;100375.31;;;20.00
29701;BMP280;57917;51.380;-0.176;2022-09-09T12:01:02;100379.94;;;20.19
29701;BMP280;57917;51.380;-0.176;2022-09-09T12:07:41;100366.50;;;20.34
29701;BMP280;57917;51.380;-0.176;2022-09-09T12:13:59;100366.53;;;20.72
29701;BMP280;57917;51.380;-0.176;2022-09-09T12:41:27;100371.78;;;20.65
29701;BMP280;57917;51.380;-0.176;2022-09-09T12:48:19;100379.81;;;20.46
29701;BMP280;57917;51.380;-0.176;2022-09-09T12:56:30;100372.06;;;20.79
29701;BMP280;57917;51.380;-0.176;2022-09-09T14:10:47;100381.38;;;21.68
29701;BMP280;57917;51.380;-0.176;2022-09-09T14:56:35;100399.47;;;21.90
29701;BMP280;57917;51.380;-0.176;2022-09-09T15:02:57;100397.44;;;21.61
29701;BMP280;57917;51.380;-0.176;2022-09-09T15:08:47;100407.22;;;21.95
29701;BMP280;57917;51.380;-0.176;2022-09-09T15:14:40;100412.19;;;21.67
29701;BMP280;57917;51.380;-0.176;2022-09-09T15:21:29;100401.50;;;21.74
29701;BMP280;57917;51.380;-0.176;2022-09-09T15:27:24;100411.97;;;22.02
29701;BMP280;57917;51.380;-0.176;2022-09-09T15:33:11;100414.22;;;22.00
29701;BMP280;57917;51.380;-0.176;2022-09-09T15:54:15;100426.03;;;21.92
29701;BMP280;57917;51.380;-0.176;2022-09-09T16:15:13;100427.16;;;21.68
29701;BMP280;57917;51.380;-0.176;2022-09-09T16:27:58;100440.81;;;22.01
29701;BMP280;57917;51.380;-0.176;2022-09-09T16:35:27;100427.47;;;22.08
29701;BMP280;57917;51.380;-0.176;2022-09-09T16:48:52;100431.53;;;21.99
29701;BMP280;57917;51.380;-0.176;2022-09-09T16:54:56;100435.16;;;21.61
29701;BMP280;57917;51.380;-0.176;2022-09-09T17:08:58;100475.03;;;21.33
29701;BMP280;57917;51.380;-0.176;2022-09-09T17:15:22;100479.00;;;21.20
29701;BMP280;57917;51.380;-0.176;2022-09-09T17:21:48;100490.19;;;21.22
29701;BMP280;57917;51.380;-0.176;2022-09-09T17:28:07;100495.81;;;21.14
29701;BMP280;57917;51.380;-0.176;2022-09-09T17:33:55;100506.56;;;20.95
29701;BMP280;57917;51.380;-0.176;2022-09-09T17:39:51;100530.56;;;20.53
29701;BMP280;57917;51.380;-0.176;2022-09-09T17:45:41;100535.50;;;20.36
29701;BMP280;57917;51.380;-0.176;2022-09-09T17:51:30;100545.31;;;20.28
29701;BMP280;57917;51.380;-0.176;2022-09-09T17:57:54;100551.09;;;20.15
29701;BMP280;57917;51.380;-0.176;2022-09-09T18:04:22;100561.56;;;19.89
29701;BMP280;57917;51.380;-0.176;2022-09-09T18:10:18;100567.47;;;19.67
29701;BMP280;57917;51.380;-0.176;2022-09-09T18:16:10;100579.06;;;19.43
29701;BMP280;57917;51.380;-0.176;2022-09-09T18:21:57;100575.25;;;19.44
29701;BMP280;57917;51.380;-0.176;2022-09-09T18:27:54;100591.03;;;19.46
29701;BMP280;57917;51.380;-0.176;2022-09-09T18:33:43;100602.69;;;19.38
29701;BMP280;57917;51.380;-0.176;2022-09-09T18:39:30;100614.09;;;19.35
29701;BMP280;57917;51.380;-0.176;2022-09-09T18:45:21;100618.78;;;19.38
29701;BMP280;57917;51.380;-0.176;2022-09-09T18:51:15;100619.56;;;19.26
29701;BMP280;57917;51.380;-0.176;2022-09-09T18:57:35;100633.78;;;19.27
29701;BMP280;57917;51.380;-0.176;2022-09-09T19:03:33;100650.44;;;19.32
29701;BMP280;57917;51.380;-0.176;2022-09-09T19:09:24;100657.50;;;19.25
29701;BMP280;57917;51.380;-0.176;2022-09-09T19:15:11;100668.44;;;19.08
29701;BMP280;57917;51.380;-0.176;2022-09-09T19:21:21;100681.47;;;18.85
29701;BMP280;57917;51.380;-0.176;2022-09-09T19:27:08;100689.56;;;18.97
29701;BMP280;57917;51.380;-0.176;2022-09-09T19:32:55;100685.72;;;18.86
29701;BMP280;57917;51.380;-0.176;2022-09-09T19:38:45;100690.63;;;18.72
29701;BMP280;57917;51.380;-0.176;2022-09-09T19:44:32;100699.31;;;18.69
29701;BMP280;57917;51.380;-0.176;2022-09-09T19:50:18;100710.25;;;18.52
29701;BMP280;57917;51.380;-0.176;2022-09-09T19:56:09;100719.47;;;18.54
29701;BMP280;57917;51.380;-0.176;2022-09-09T20:01:58;100727.75;;;18.49
29701;BMP280;57917;51.380;-0.176;2022-09-09T20:07:46;100734.97;;;18.69
29701;BMP280;57917;51.380;-0.176;2022-09-09T20:13:36;100744.69;;;18.62
29701;BMP280;57917;51.380;-0.176;2022-09-09T20:19:24;100750.47;;;18.64
29701;BMP280;57917;51.380;-0.176;2022-09-09T20:25:11;100737.78;;;18.73
29701;BMP280;57917;51.380;-0.176;2022-09-09T20:36:55;100751.97;;;18.53
29701;BMP280;57917;51.380;-0.176;2022-09-09T20:42:44;100754.28;;;18.42
29701;BMP280;57917;51.380;-0.176;2022-09-09T20:48:34;100754.03;;;18.35
29701;BMP280;57917;51.380;-0.176;2022-09-09T20:54:25;100751.59;;;18.22
29701;BMP280;57917;51.380;-0.176;2022-09-09T21:00:13;100759.53;;;18.18
29701;BMP280;57917;51.380;-0.176;2022-09-09T21:06:06;100764.63;;;18.11
29701;BMP280;57917;51.380;-0.176;2022-09-09T21:11:57;100771.59;;;18.04
29701;BMP280;57917;51.380;-0.176;2022-09-09T21:17:44;100769.47;;;17.89
29701;BMP280;57917;51.380;-0.176;2022-09-09T21:23:35;100774.03;;;17.88
29701;BMP280;57917;51.380;-0.176;2022-09-09T21:29:27;100784.28;;;17.86
29701;BMP280;57917;51.380;-0.176;2022-09-09T21:35:17;100777.50;;;17.89
29701;BMP280;57917;51.380;-0.176;2022-09-09T21:41:20;100793.19;;;17.70
29701;BMP280;57917;51.380;-0.176;2022-09-09T21:47:09;100790.22;;;17.71
29701;BMP280;57917;51.380;-0.176;2022-09-09T21:52:58;100809.44;;;17.73
29701;BMP280;57917;51.380;-0.176;2022-09-09T21:58:53;100803.16;;;17.61
29701;BMP280;57917;51.380;-0.176;2022-09-09T22:04:41;100814.53;;;17.49
29701;BMP280;57917;51.380;-0.176;2022-09-09T22:10:29;100819.28;;;17.44
29701;BMP280;57917;51.380;-0.176;2022-09-09T22:16:23;100827.94;;;17.32
29701;BMP280;57917;51.380;-0.176;2022-09-09T22:22:11;100827.19;;;17.23
29701;BMP280;57917;51.380;-0.176;2022-09-09T22:28:00;100832.69;;;17.35
29701;BMP280;57917;51.380;-0.176;2022-09-09T22:33:47;100827.31;;;17.27
29701;BMP280;57917;51.380;-0.176;2022-09-09T22:39:34;100847.19;;;17.09
29701;BMP280;57917;51.380;-0.176;2022-09-09T22:45:21;100833.03;;;17.08
29701;BMP280;57917;51.380;-0.176;2022-09-09T22:51:13;100840.38;;;17.11
29701;BMP280;57917;51.380;-0.176;2022-09-09T22:57:00;100835.38;;;17.10
29701;BMP280;57917;51.380;-0.176;2022-09-09T23:02:47;100840.25;;;17.16
29701;BMP280;57917;51.380;-0.176;2022-09-09T23:08:37;100843.88;;;16.95
29701;BMP280;57917;51.380;-0.176;2022-09-09T23:14:26;100848.28;;;17.08
29701;BMP280;57917;51.380;-0.176;2022-09-09T23:20:13;100837.72;;;17.11
29701;BMP280;57917;51.380;-0.176;2022-09-09T23:26:01;100843.38;;;16.93
29701;BMP280;57917;51.380;-0.176;2022-09-09T23:31:48;100841.25;;;16.86
29701;BMP280;57917;51.380;-0.176;2022-09-09T23:37:35;100845.13;;;16.89
29701;BMP280;57917;51.380;-0.176;2022-09-09T23:43:22;100839.31;;;16.78
29701;BMP280;57917;51.380;-0.176;2022-09-09T23:49:10;100848.44;;;16.69
29701;BMP280;57917;51.380;-0.176;2022-09-09T23:54:57;100845.28;;;16.67
